Aérodrome :
LOGIN :

S'inscrire | Disclaimer

   EN    FR    IT 

 










Légende :    VFR   VFR Marginal   IFR   IFR Intensif   IFR Très Intensif
Visi : 
Plafond : 
>= 8 km
>= 3000ft
5 à 8 km
1000 à 3000 ft
1500m à 5 km
500 à 1000 ft
800 à 1500m
200 à 500 ft
< 800m
< 200 ft
Symboles :   Orages  Brouillard  Fortes neiges  Fortes précipitations  Vent > 20 kt
SIGMETs :   Divers  Orages  Givrage  Turbulence  Onde Orograph.  Cendres Volcan.






- Altitude de l'aérodrome : 327 ft
- Code IATA : BHX


EGBB - Birmingham

DERNIER METAR :
  • 080650Z 17005KT 4000 BR NSC M03/M03 Q1034

METARs EXPIRÉS :
  • 080620Z 16004KT 4000 BR NSC M04/M05 Q1034
  • 080550Z 17005KT 4000 BR MIFG NSC M04/M04 Q1034
  • 080520Z 17005KT 4000 BR MIFG NSC M05/M06 Q1035
  • 080450Z 18004KT 4400 BR MIFG NSC M05/M05 Q1035
  • 080420Z 16003KT 4400 BR MIFG NSC M05/M05 Q1035

TAF TAF EGBB
Valide du 08 à 06h jusqu'au 09 à 06h UTC


080455Z 0806/0906 VRB03KT 4000 BR FEW004
PROB40 0806/0810 0300 FZFG VV///
BECMG 0810/0813 19010KT CAVOK
PROB30 0821/0902 8000
BECMG 0902/0905 27004KT
TEMPO 0902/0906 8000 -RA BKN010
ATIS : +44 121 780 0910



MET'MAP, la Météo Aéronautique d'un coup d'oeil ! - Copyright ORBIFLY Décembre 2007 - Disclaimer

ORBIFLY MET'MAP TEAM :

Programmation & Développement : Alexandra Zaïnal
Sur une idée originale de : Baudouin d'Aumeries
Soutien technique & logistique : Manuel Goepfert
Assistance : Marc-Olivier Méhu




SOURCES & CREDITS :

   NOAA